createdAt,value
2023-05-04T00:00:07.470Z,0.0314
2023-05-04T00:01:08.348Z,0.1393
2023-05-04T00:02:09.436Z,0.0930
2023-05-04T00:03:10.606Z,0.0338
2023-05-04T10:07:33.101Z,5.6421
2023-05-04T10:08:26.571Z,2.7140
2023-05-04T10:09:27.660Z,1.8676
2023-05-04T10:10:28.757Z,1.5533
2023-05-04T10:11:29.861Z,1.2282
2023-05-04T10:12:31.040Z,1.0999
2023-05-04T10:13:32.093Z,1.1992
2023-05-04T10:14:33.218Z,1.1453
2023-05-04T10:15:34.327Z,1.0380
2023-05-04T10:16:35.468Z,0.8016
2023-05-04T10:17:36.573Z,1.0670
2023-05-04T10:18:37.663Z,0.8543
2023-05-04T10:19:38.766Z,0.7857
2023-05-04T10:20:39.894Z,0.6001
2023-05-04T10:21:40.988Z,0.5526
2023-05-04T10:22:42.132Z,0.4739
2023-05-04T10:23:43.232Z,0.4477
2023-05-04T10:24:44.374Z,0.4703
2023-05-04T10:25:45.468Z,0.5141
2023-05-04T10:26:46.568Z,0.4130
2023-05-04T10:27:47.734Z,0.4277
2023-05-04T10:28:48.781Z,0.5083
2023-05-04T10:29:49.907Z,0.4485
2023-05-04T10:30:51.017Z,0.3985
2023-05-04T10:31:52.149Z,0.6169
2023-05-04T10:32:53.289Z,0.5281
2023-05-04T10:33:54.326Z,0.4368
2023-05-04T10:34:57.332Z,0.5425
2023-05-04T10:35:56.531Z,0.3777
2023-05-04T10:36:57.641Z,0.5863
2023-05-04T10:37:58.761Z,0.5328
2023-05-04T10:38:59.874Z,0.7222
2023-05-04T10:40:01.009Z,0.6905
2023-05-04T10:41:02.092Z,0.6438
2023-05-04T10:42:03.210Z,0.5855
2023-05-04T10:43:04.317Z,0.6125
2023-05-04T10:44:05.420Z,0.7070
2023-05-04T10:45:06.732Z,0.5937
2023-05-04T10:46:07.662Z,0.7313
2023-05-04T10:47:08.756Z,0.6781
2023-05-04T10:48:09.945Z,0.6966
2023-05-04T10:49:10.966Z,0.7172
2023-05-04T10:50:12.090Z,0.7624
2023-05-04T10:51:13.196Z,0.5801
2023-05-04T10:52:14.296Z,0.6122
2023-05-04T10:53:15.427Z,0.9345
2023-05-04T10:54:16.536Z,0.9784
2023-05-04T10:55:17.628Z,0.9775
2023-05-04T10:56:18.732Z,1.0963
2023-05-04T10:57:19.867Z,0.8291
2023-05-04T10:58:20.979Z,0.9553
2023-05-04T10:59:22.071Z,0.8494
2023-05-04T11:00:23.205Z,0.8311
2023-05-04T11:01:24.379Z,0.7018
2023-05-04T11:02:25.449Z,0.6864
2023-05-04T11:03:26.653Z,0.9045
2023-05-04T11:04:27.650Z,0.9547
2023-05-04T11:05:28.750Z,0.7929
2023-05-04T11:06:29.858Z,0.8328
2023-05-04T11:07:30.970Z,0.8759
2023-05-04T11:08:32.083Z,0.7789
2023-05-04T11:09:33.181Z,0.8648
2023-05-04T11:10:34.276Z,0.7434
2023-05-04T11:11:35.397Z,0.9464
2023-05-04T11:12:36.542Z,1.2033
2023-05-04T11:13:37.638Z,0.8244
2023-05-04T11:14:38.739Z,0.6977
2023-05-04T11:15:39.837Z,0.8643
2023-05-04T11:16:40.992Z,1.0747
2023-05-04T11:17:42.079Z,0.9755
2023-05-04T11:18:43.163Z,1.1658
2023-05-04T11:19:44.260Z,1.1614
2023-05-04T11:20:45.357Z,1.0054
2023-05-04T11:21:46.471Z,1.0674
2023-05-04T11:22:47.591Z,1.4634
2023-05-04T11:23:48.703Z,1.8172
2023-05-04T11:24:49.816Z,1.8316
2023-05-04T11:25:50.917Z,2.1780
2023-05-04T11:26:52.041Z,2.0325
2023-05-04T11:27:53.137Z,2.3092
2023-05-04T11:28:54.258Z,2.1685
2023-05-04T11:29:55.378Z,2.0187
2023-05-04T11:30:56.478Z,2.2119
2023-05-04T11:31:57.686Z,2.3456
2023-05-04T11:32:58.696Z,2.0641
2023-05-04T11:33:59.831Z,2.2454
2023-05-04T11:35:00.912Z,2.0230
2023-05-04T11:36:02.010Z,1.8426
2023-05-04T11:37:03.162Z,1.5740
2023-05-04T11:38:04.247Z,1.8349
2023-05-04T11:39:05.357Z,1.8079
2023-05-04T11:40:06.474Z,1.5936
2023-05-04T11:41:07.579Z,1.5960
2023-05-04T11:42:08.698Z,1.6349
2023-05-04T11:43:09.800Z,1.8551
2023-05-04T11:44:10.909Z,1.5882
2023-05-04T11:45:12.021Z,1.6673
2023-05-04T11:46:13.218Z,1.4241
2023-05-04T11:47:14.244Z,1.4539
2023-05-04T11:48:16.649Z,1.6666
2023-05-04T11:49:16.514Z,1.7155
2023-05-04T11:50:17.575Z,1.1987
2023-05-04T11:51:18.693Z,1.4434
2023-05-04T11:52:19.805Z,1.1042
2023-05-04T11:53:20.905Z,1.3178
2023-05-04T11:54:22.154Z,1.4604
2023-05-04T11:55:23.130Z,1.1263
2023-05-04T11:56:24.242Z,1.0083
2023-05-04T11:57:25.345Z,1.1580
2023-05-04T11:58:26.455Z,1.0406
2023-05-04T11:59:27.601Z,1.1275
2023-05-04T12:00:28.677Z,1.1414
2023-05-04T12:01:29.787Z,0.9645
2023-05-04T12:02:30.939Z,1.0808
2023-05-04T12:03:48.073Z,0.9915
2023-05-04T12:04:34.172Z,1.3252
2023-05-04T12:05:34.259Z,1.5621
2023-05-04T12:06:35.380Z,1.1448
2023-05-04T12:07:36.503Z,0.9917
2023-05-04T12:08:37.566Z,0.7839
2023-05-04T12:09:38.840Z,0.9053
2023-05-04T12:10:39.801Z,0.9149
2023-05-04T12:11:40.910Z,0.8072
2023-05-04T12:12:42.069Z,0.9029
2023-05-04T12:13:43.134Z,0.9762
2023-05-04T12:14:44.287Z,1.0715
2023-05-04T12:15:45.364Z,1.3674
2023-05-04T12:16:46.532Z,1.1140
2023-05-04T12:17:47.637Z,1.2295
2023-05-04T12:18:48.665Z,1.0205
2023-05-04T12:19:49.799Z,1.2563
2023-05-04T12:20:50.885Z,1.0916
2023-05-04T12:21:52.269Z,0.9347
2023-05-04T12:22:53.087Z,1.0674
2023-05-04T12:23:54.224Z,1.1473
2023-05-04T12:24:55.501Z,1.1418
2023-05-04T12:25:58.440Z,1.1090
2023-05-04T12:26:57.536Z,1.0349
2023-05-04T12:27:58.619Z,1.3857
2023-05-04T12:28:59.755Z,1.1105
2023-05-04T12:30:00.836Z,1.1618
2023-05-04T12:31:01.939Z,1.1609
2023-05-04T12:32:03.111Z,1.2613
2023-05-04T12:33:04.200Z,1.0074
2023-05-04T12:34:05.269Z,0.8002
2023-05-04T12:35:06.572Z,1.1703
2023-05-04T12:36:07.497Z,0.9968
2023-05-04T12:37:08.596Z,1.0748
2023-05-04T12:38:09.722Z,0.7798
2023-05-04T12:39:10.809Z,1.0021
2023-05-04T12:40:25.087Z,1.0606
2023-05-04T12:41:14.059Z,0.9004
2023-05-04T12:42:14.133Z,1.2863
2023-05-04T12:43:15.264Z,1.2901
2023-05-04T12:44:16.358Z,0.8463
2023-05-04T12:45:17.465Z,0.6929
2023-05-04T12:46:18.576Z,0.9096
2023-05-04T12:47:19.726Z,1.1550
2023-05-04T12:48:20.794Z,1.0888
2023-05-04T12:49:24.574Z,0.8119
2023-05-04T12:50:23.001Z,1.0773
2023-05-04T12:51:24.094Z,0.7368
2023-05-04T12:52:25.211Z,0.9980
2023-05-04T12:53:26.313Z,0.8646
2023-05-04T12:54:27.421Z,1.1077
2023-05-04T12:55:28.647Z,1.1466
2023-05-04T12:56:29.632Z,0.8770
2023-05-04T12:57:30.740Z,0.9223
2023-05-04T12:58:31.896Z,1.0331
2023-05-04T12:59:32.983Z,0.9173
2023-05-04T13:00:34.097Z,1.1893
2023-05-04T13:01:35.222Z,1.4499
2023-05-04T13:02:36.316Z,1.2023
2023-05-04T13:03:37.515Z,1.0202
2023-05-04T13:04:38.529Z,1.1049
2023-05-04T13:05:39.659Z,1.2766
2023-05-04T13:06:40.759Z,3.0303
2023-05-04T13:07:41.850Z,1.9702
2023-05-04T13:08:42.989Z,1.9675
2023-05-04T13:09:44.050Z,1.6797
2023-05-04T13:10:45.240Z,1.8120
2023-05-04T13:11:46.254Z,1.8281
2023-05-04T13:12:47.407Z,1.9287
2023-05-04T13:13:48.462Z,1.9846
2023-05-04T13:14:49.597Z,2.0153
2023-05-04T13:15:50.725Z,2.1338
2023-05-04T13:16:51.832Z,2.3883
2023-05-04T13:17:52.905Z,3.0099
2023-05-04T13:18:54.014Z,3.2090
2023-05-04T13:19:55.120Z,2.9240
2023-05-04T13:20:56.271Z,3.2999
2023-05-04T13:21:57.332Z,3.1770
2023-05-04T13:22:58.660Z,2.9291
2023-05-04T13:23:59.544Z,3.2676
2023-05-04T13:25:00.669Z,4.0528
2023-05-04T13:26:01.809Z,3.3523
2023-05-04T13:27:02.930Z,3.1779
2023-05-04T13:28:03.973Z,3.1872
2023-05-04T13:29:05.091Z,3.3200
2023-05-04T13:30:06.193Z,3.0935
2023-05-04T13:31:07.418Z,2.0128
2023-05-04T13:32:08.415Z,2.4294
2023-05-04T13:33:20.603Z,2.7001
2023-05-04T13:34:11.700Z,2.4902
2023-05-04T13:35:11.747Z,2.5661
2023-05-04T13:36:12.861Z,2.9365
2023-05-04T13:37:13.958Z,2.2693
2023-05-04T13:38:15.064Z,1.5783
2023-05-04T13:39:16.166Z,3.0557
2023-05-04T13:40:17.285Z,1.9734
2023-05-04T13:41:18.458Z,1.7029
2023-05-04T13:42:19.488Z,1.6134
2023-05-04T13:43:20.583Z,1.8610
2023-05-04T13:44:21.691Z,1.5872
2023-05-04T13:45:22.815Z,1.6437
2023-05-04T13:46:23.936Z,1.6000
2023-05-04T13:47:25.012Z,1.7576
2023-05-04T13:48:26.287Z,1.8865
2023-05-04T13:49:27.220Z,1.6658
2023-05-04T13:50:28.296Z,1.4122
2023-05-04T13:51:29.442Z,1.6960
2023-05-04T13:52:30.526Z,1.5367
2023-05-04T13:53:31.676Z,1.3257
2023-05-04T13:54:32.716Z,1.3979
2023-05-04T13:55:33.822Z,1.3382
2023-05-04T13:56:34.970Z,1.0289
2023-05-04T13:57:36.045Z,0.9919
2023-05-04T13:58:37.144Z,1.2364
2023-05-04T13:59:38.250Z,1.3580
2023-05-04T14:00:39.398Z,1.1197
2023-05-04T14:01:40.451Z,1.1865
2023-05-04T14:02:41.646Z,1.0452
2023-05-04T14:03:42.664Z,1.0510
2023-05-04T14:04:44.498Z,0.7521
2023-05-04T14:05:44.854Z,1.1398
2023-05-04T14:06:45.969Z,1.1798
2023-05-04T14:07:47.145Z,1.0867
2023-05-04T14:08:48.245Z,1.0414
2023-05-04T14:09:49.357Z,1.0221
2023-05-04T14:10:50.472Z,1.0078
2023-05-04T14:11:51.659Z,0.7248
2023-05-04T14:12:52.695Z,0.7797
2023-05-04T14:13:53.782Z,0.9256
2023-05-04T14:14:54.892Z,0.9473
2023-05-04T14:15:55.982Z,0.9120
2023-05-04T14:16:57.154Z,0.9614
2023-05-04T14:17:58.247Z,1.0843
2023-05-04T14:18:59.318Z,0.7933
2023-05-04T14:20:00.421Z,0.7638
2023-05-04T14:21:01.526Z,1.0441
2023-05-04T14:22:02.654Z,0.9357
2023-05-04T14:23:03.739Z,0.8390
2023-05-04T14:24:04.868Z,0.7421
2023-05-04T14:25:06.247Z,0.9867
2023-05-04T14:26:07.100Z,1.0372
2023-05-04T14:27:08.198Z,0.8385
2023-05-04T14:28:09.281Z,0.7577
2023-05-04T14:29:10.396Z,0.8233
2023-05-04T14:30:11.525Z,0.5652
2023-05-04T14:31:12.611Z,0.7743
2023-05-04T14:32:13.767Z,0.6153
2023-05-04T14:33:14.872Z,0.8119
2023-05-04T14:34:15.946Z,0.7832
2023-05-04T14:35:17.054Z,0.7835
2023-05-04T14:36:18.163Z,0.5836
2023-05-04T14:37:19.289Z,0.9166
2023-05-04T14:38:20.376Z,0.7560
2023-05-04T14:39:21.495Z,0.8675
2023-05-04T14:40:22.625Z,0.7075
2023-05-04T14:41:23.737Z,1.0083
2023-05-04T14:42:24.863Z,0.7322
2023-05-04T14:43:26.141Z,0.9552
2023-05-04T14:44:27.266Z,0.8470
2023-05-04T14:45:28.426Z,0.9962
2023-05-04T14:46:29.400Z,0.9428
2023-05-04T14:47:30.673Z,0.7368
2023-05-04T14:48:31.584Z,0.7466
2023-05-04T14:49:37.282Z,0.8821
2023-05-04T14:50:34.677Z,0.7762
2023-05-04T14:51:34.782Z,0.7519
2023-05-04T14:52:35.899Z,0.9630
2023-05-04T14:53:37.940Z,0.8463
2023-05-04T14:54:38.100Z,0.7597
2023-05-04T14:55:39.185Z,0.8465
2023-05-04T14:56:40.309Z,0.8127
2023-05-04T14:57:41.422Z,0.7111
2023-05-04T14:58:42.517Z,0.6399
2023-05-04T14:59:43.625Z,0.9547
2023-05-04T15:00:44.752Z,0.8061
2023-05-04T15:01:45.907Z,1.0097
2023-05-04T15:02:47.007Z,0.6732
2023-05-04T15:03:48.134Z,0.8467
2023-05-04T15:04:49.168Z,0.9476
2023-05-04T15:05:50.274Z,0.7641
2023-05-04T15:06:51.391Z,0.7149
2023-05-04T15:07:52.492Z,0.7310
2023-05-04T15:08:53.596Z,0.7977
2023-05-04T15:09:54.692Z,0.7296
2023-05-04T15:10:55.801Z,0.7903
2023-05-04T15:11:56.899Z,0.6613
2023-05-04T15:12:58.004Z,0.6978
2023-05-04T15:13:59.140Z,0.7218
2023-05-04T15:15:00.229Z,0.6678
2023-05-04T15:16:01.357Z,0.6331
2023-05-04T15:17:02.452Z,0.5854
2023-05-04T15:18:03.626Z,0.6751
2023-05-04T15:19:04.745Z,0.8268
2023-05-04T15:20:06.006Z,0.5985
2023-05-04T15:21:06.877Z,0.6701
2023-05-04T15:22:07.994Z,0.6015
2023-05-04T15:23:09.083Z,0.4794
2023-05-04T15:24:10.212Z,0.5053
2023-05-04T15:25:11.320Z,0.4639
2023-05-04T15:26:12.418Z,0.5843
2023-05-04T15:27:13.529Z,0.5847
2023-05-04T15:28:14.622Z,0.3347
2023-05-04T15:29:15.733Z,0.4205
2023-05-04T15:30:16.833Z,0.3200
2023-05-04T15:31:17.968Z,0.3239
2023-05-04T15:32:19.081Z,0.4862
2023-05-04T15:33:20.175Z,0.5189
2023-05-04T15:34:21.258Z,2.2516
2023-05-04T15:35:22.384Z,2.3778
2023-05-04T15:36:23.467Z,2.0826
2023-05-04T15:37:24.590Z,2.2316
2023-05-04T15:38:25.708Z,2.0021
2023-05-04T15:39:26.818Z,2.5502
2023-05-04T15:40:27.924Z,1.6320
2023-05-04T15:41:29.036Z,1.4489
2023-05-04T15:42:30.130Z,1.8918
2023-05-04T15:43:31.287Z,1.7070
2023-05-04T15:44:32.345Z,1.0909
2023-05-04T15:45:33.445Z,1.4269
2023-05-04T15:46:34.600Z,1.1267
2023-05-04T15:47:35.682Z,1.0303
2023-05-04T15:48:36.767Z,0.9341
2023-05-04T15:49:37.854Z,1.1146
2023-05-04T15:50:38.984Z,0.8399
2023-05-04T15:51:40.081Z,0.7730
2023-05-04T15:52:41.175Z,0.9468
2023-05-04T15:53:42.321Z,1.0021
2023-05-04T15:54:43.371Z,0.7898
2023-05-04T15:55:44.482Z,0.8061
2023-05-04T15:56:45.594Z,0.7013
2023-05-04T15:57:46.709Z,0.7713
2023-05-04T15:58:47.833Z,0.5502
2023-05-04T15:59:48.896Z,0.5051
2023-05-04T16:00:50.049Z,0.7087
2023-05-04T16:01:51.123Z,0.6593
2023-05-04T16:02:52.341Z,0.4743
2023-05-04T16:03:53.461Z,0.6306
2023-05-04T16:04:54.416Z,0.4721
2023-05-04T16:05:55.529Z,0.5599
2023-05-04T16:06:57.590Z,0.5639
2023-05-04T16:07:57.754Z,0.3940
2023-05-04T16:08:58.865Z,0.3102
2023-05-04T16:09:59.944Z,0.4151
2023-05-04T16:11:01.216Z,0.3660
2023-05-04T16:12:02.159Z,0.3597
2023-05-04T16:13:03.289Z,0.4654
2023-05-04T16:14:04.394Z,0.3391
2023-05-04T16:15:05.481Z,0.2734
2023-05-04T16:16:06.621Z,0.3975
2023-05-04T16:17:07.739Z,0.4812
2023-05-04T16:18:08.874Z,0.4101
2023-05-04T16:19:11.587Z,0.3285
2023-05-04T16:20:11.004Z,0.3131
2023-05-04T16:21:12.109Z,0.3906
2023-05-04T16:22:13.201Z,0.3777
2023-05-04T16:23:14.330Z,0.3471
2023-05-04T16:24:15.417Z,0.3075
2023-05-04T16:25:16.539Z,0.4357
2023-05-04T16:26:17.637Z,0.5116
2023-05-04T16:27:18.756Z,0.4056
2023-05-04T16:28:19.849Z,0.3448
2023-05-04T16:29:20.942Z,0.3693
2023-05-04T16:30:22.065Z,0.3803
2023-05-04T16:31:23.169Z,0.3633
2023-05-04T16:32:24.292Z,0.3211
2023-05-04T16:33:25.375Z,0.4053
2023-05-04T16:34:26.493Z,0.3579
2023-05-04T16:35:27.579Z,0.3463
2023-05-04T16:36:28.685Z,0.4300
2023-05-04T16:37:29.797Z,0.3474
2023-05-04T16:38:30.889Z,0.3138
2023-05-04T16:39:32.003Z,0.3868
2023-05-04T16:40:33.085Z,0.3115
2023-05-04T16:41:34.251Z,0.3251
2023-05-04T16:42:35.284Z,0.3240
2023-05-04T16:43:36.401Z,0.3818
2023-05-04T16:44:37.546Z,0.3619
2023-05-04T16:45:38.599Z,0.2307
2023-05-04T16:46:39.691Z,0.3341
2023-05-04T16:47:40.849Z,0.3855
2023-05-04T16:48:41.916Z,0.2905
2023-05-04T16:49:43.023Z,0.2425
2023-05-04T16:50:44.127Z,0.3099
2023-05-04T16:51:45.245Z,0.3379
2023-05-04T16:52:46.362Z,0.3699
2023-05-04T16:53:47.427Z,0.3645
2023-05-04T16:54:48.545Z,0.3284
2023-05-04T16:55:49.653Z,0.3828
2023-05-04T16:56:50.746Z,0.2829
2023-05-04T16:57:51.849Z,0.3721
2023-05-04T16:58:52.926Z,0.3105
2023-05-04T16:59:54.123Z,0.3128
2023-05-04T17:00:55.117Z,0.3640
2023-05-04T17:01:56.262Z,0.3348
2023-05-04T17:02:57.377Z,0.2898
2023-05-04T17:03:58.488Z,0.3449
2023-05-04T17:04:59.530Z,0.3625
2023-05-04T17:06:00.638Z,0.2418
2023-05-04T17:07:01.715Z,0.3218
2023-05-04T17:08:02.825Z,0.3600
2023-05-04T17:09:03.911Z,0.3651
2023-05-04T17:10:05.206Z,0.3126
2023-05-04T17:11:06.137Z,0.3142
2023-05-04T17:12:07.363Z,0.2794
2023-05-04T17:13:08.365Z,0.3145
2023-05-04T17:14:09.408Z,0.2790
2023-05-04T17:15:10.521Z,0.4437
2023-05-04T17:16:11.614Z,0.2674
2023-05-04T17:17:12.714Z,0.3278
2023-05-04T17:18:13.806Z,0.3753
2023-05-04T17:19:14.897Z,0.2644
2023-05-04T17:20:15.997Z,0.2858
2023-05-04T17:21:17.082Z,0.3193
2023-05-04T17:22:18.257Z,0.2944
2023-05-04T17:23:19.294Z,0.2786
2023-05-04T17:24:20.358Z,0.3879
2023-05-04T17:25:21.514Z,0.3323
2023-05-04T17:26:22.560Z,0.3534
2023-05-04T17:27:23.650Z,0.3704
2023-05-04T17:28:24.743Z,0.3219
2023-05-04T17:29:25.861Z,0.3156
2023-05-04T17:30:26.955Z,0.3917
2023-05-04T17:31:28.086Z,0.2561
2023-05-04T17:32:29.142Z,0.4152
2023-05-04T17:33:30.238Z,0.3789
2023-05-04T17:34:31.320Z,0.2541
2023-05-04T17:35:32.443Z,0.3488
2023-05-04T17:36:33.516Z,0.3629
2023-05-04T17:37:34.613Z,0.2909
2023-05-04T17:38:35.719Z,0.2917
2023-05-04T17:39:36.831Z,0.2716
2023-05-04T17:40:37.919Z,0.3495
2023-05-04T17:41:39.020Z,0.3210
2023-05-04T17:42:40.097Z,0.2985
2023-05-04T17:43:41.191Z,0.3004
2023-05-04T17:44:42.278Z,0.3610
2023-05-04T17:45:43.430Z,0.3760
2023-05-04T17:46:44.471Z,0.3520
2023-05-04T17:47:45.597Z,0.3299
2023-05-04T17:48:46.658Z,0.3669
2023-05-04T17:49:47.745Z,0.3074
2023-05-04T17:50:48.921Z,0.3426
2023-05-04T17:51:49.964Z,0.2940
2023-05-04T17:52:51.037Z,0.3174
2023-05-04T17:53:52.130Z,0.3076
2023-05-04T17:54:53.226Z,0.2528
2023-05-04T17:55:54.359Z,0.3190
2023-05-04T17:56:55.415Z,0.3061
2023-05-04T17:57:56.495Z,0.3449
2023-05-04T17:58:57.731Z,0.4363
2023-05-04T17:59:58.701Z,0.2946
2023-05-04T18:00:59.785Z,0.3327
2023-05-04T18:02:00.899Z,0.3271
2023-05-04T18:03:02.131Z,0.2867
2023-05-04T18:04:03.082Z,0.3674
2023-05-04T18:05:04.182Z,0.2982
2023-05-04T18:06:05.293Z,0.3677
2023-05-04T18:07:06.357Z,0.3436
2023-05-04T18:08:07.525Z,0.3167
2023-05-04T18:09:08.636Z,0.3553
2023-05-04T18:10:09.805Z,0.3381
2023-05-04T18:11:10.825Z,0.3239
2023-05-04T18:12:11.913Z,0.3027
2023-05-04T18:13:13.026Z,0.2919
2023-05-04T18:14:14.086Z,0.4178
2023-05-04T18:15:15.185Z,0.3204
2023-05-04T18:16:16.296Z,0.3958
2023-05-04T18:17:17.391Z,0.3239
2023-05-04T18:18:18.483Z,0.2829
2023-05-04T18:19:19.570Z,0.3347
2023-05-04T18:20:20.681Z,0.3302
2023-05-04T18:21:21.764Z,0.3826
2023-05-04T18:22:22.868Z,0.3510
2023-05-04T18:23:23.961Z,0.3558
2023-05-04T18:24:25.062Z,0.2763
2023-05-04T18:25:26.148Z,0.2874
2023-05-04T18:26:27.269Z,0.4037
2023-05-04T18:27:28.348Z,0.3920
2023-05-04T18:28:29.443Z,0.4517
2023-05-04T18:29:30.533Z,0.3538
2023-05-04T18:30:31.642Z,0.3099
2023-05-04T18:31:32.761Z,0.3845
2023-05-04T18:32:33.835Z,0.4054
2023-05-04T18:33:34.922Z,0.3274
2023-05-04T18:34:36.031Z,0.3743
2023-05-04T18:35:37.096Z,0.2975
2023-05-04T18:36:38.200Z,0.3440
2023-05-04T18:37:39.280Z,0.4638
2023-05-04T18:38:40.389Z,0.4460
2023-05-04T18:39:41.478Z,0.3761
2023-05-04T18:40:42.608Z,0.4172
2023-05-04T18:41:43.694Z,0.3565
2023-05-04T18:42:44.774Z,0.2812
2023-05-04T18:43:45.901Z,0.3747
2023-05-04T18:44:46.981Z,0.2526
2023-05-04T18:45:48.127Z,0.2950
2023-05-04T18:46:49.217Z,0.3957
2023-05-04T18:47:50.336Z,0.4288
2023-05-04T18:48:51.378Z,0.4784
2023-05-04T18:49:52.495Z,0.3617
2023-05-04T18:50:53.577Z,0.3065
2023-05-04T18:51:54.689Z,0.2772
2023-05-04T18:52:55.765Z,0.2931
2023-05-04T18:53:56.853Z,0.4976
2023-05-04T18:54:57.943Z,0.4912
2023-05-04T18:55:59.057Z,0.4148
2023-05-04T18:57:00.193Z,0.3747
2023-05-04T18:58:01.238Z,0.4127
2023-05-04T18:59:02.341Z,0.4151
2023-05-04T19:00:03.445Z,0.3725
2023-05-04T19:01:04.585Z,0.3750
2023-05-04T19:02:05.642Z,0.4509
2023-05-04T19:03:06.834Z,0.4324
2023-05-04T19:04:08.083Z,0.3366
2023-05-04T19:05:08.931Z,0.4026
2023-05-04T19:06:10.015Z,0.5273
2023-05-04T19:07:11.136Z,0.4429
2023-05-04T19:08:12.227Z,0.3114
2023-05-04T19:09:13.340Z,0.4274
2023-05-04T19:10:14.401Z,0.4172
2023-05-04T19:11:15.504Z,0.5107
2023-05-04T19:12:16.623Z,0.3537
2023-05-04T19:13:17.799Z,0.4562
2023-05-04T19:14:18.792Z,0.4422
2023-05-04T19:15:19.901Z,0.5238
2023-05-04T19:16:21.016Z,0.3278
2023-05-04T19:17:22.088Z,0.4914
2023-05-04T19:18:23.180Z,0.4500
2023-05-04T19:19:24.288Z,0.3741
2023-05-04T19:20:25.369Z,0.4684
2023-05-04T19:21:26.465Z,0.4371
2023-05-04T19:22:27.557Z,0.5726
2023-05-04T19:23:28.644Z,0.4490
2023-05-04T19:24:29.748Z,0.4946
2023-05-04T19:25:34.823Z,0.4442
2023-05-04T19:26:31.957Z,0.3301
2023-05-04T19:27:33.055Z,0.4280
2023-05-04T19:28:34.150Z,0.3853
2023-05-04T19:29:35.230Z,0.4462
2023-05-04T19:30:36.335Z,0.4574
2023-05-04T19:31:37.454Z,0.5563
2023-05-04T19:32:38.536Z,0.3980
2023-05-04T19:33:47.914Z,0.4211
2023-05-04T19:34:41.693Z,0.4699
2023-05-04T19:35:41.792Z,0.3606
2023-05-04T19:36:42.881Z,0.3332
2023-05-04T19:37:43.994Z,0.3552
2023-05-04T19:38:45.089Z,0.3501
2023-05-04T19:39:46.173Z,0.4406
2023-05-04T19:40:47.268Z,0.3807
2023-05-04T19:41:48.390Z,0.4100
2023-05-04T19:42:49.480Z,0.4233
2023-05-04T19:43:50.639Z,0.4206
2023-05-04T19:44:51.669Z,0.4599
2023-05-04T19:45:52.772Z,0.5380
2023-05-04T19:46:53.903Z,0.3968
2023-05-04T19:47:55.004Z,0.4896
2023-05-04T19:48:56.062Z,0.3805
2023-05-04T19:49:57.154Z,0.4466
2023-05-04T19:50:58.248Z,0.5378
2023-05-04T19:51:59.343Z,0.4418
2023-05-04T19:53:00.470Z,0.5481
2023-05-04T19:54:01.516Z,0.4785
2023-05-04T19:55:02.620Z,0.4631
2023-05-04T19:56:03.731Z,0.5042
2023-05-04T19:57:04.822Z,0.4822
2023-05-04T19:58:05.945Z,0.4937
2023-05-04T19:59:07.012Z,0.4524
2023-05-04T20:00:08.307Z,0.4823
2023-05-04T20:01:09.260Z,0.3872
2023-05-04T20:02:10.317Z,0.3695
2023-05-04T20:03:11.442Z,0.4235
2023-05-04T20:04:12.501Z,0.4361
2023-05-04T20:05:13.622Z,0.5263
2023-05-04T20:06:14.701Z,0.3964
2023-05-04T20:07:15.795Z,0.4884
2023-05-04T20:08:16.901Z,0.4906
2023-05-04T20:09:17.962Z,0.3681
2023-05-04T20:10:19.066Z,0.3827
2023-05-04T20:11:20.157Z,0.4900
2023-05-04T20:12:21.258Z,0.4229
2023-05-04T20:13:22.363Z,0.4314
2023-05-04T20:14:23.464Z,0.5003
2023-05-04T20:15:24.538Z,0.4796
2023-05-04T20:16:25.737Z,0.4090
2023-05-04T20:17:26.811Z,0.4148
2023-05-04T20:18:27.902Z,0.4186
2023-05-04T20:19:28.955Z,0.5122
2023-05-04T20:20:30.052Z,0.3744
2023-05-04T20:21:31.141Z,0.3518
2023-05-04T20:22:32.224Z,0.4345
2023-05-04T20:23:33.348Z,0.3981
2023-05-04T20:24:34.426Z,0.4680
2023-05-04T20:25:35.522Z,0.4002
2023-05-04T20:26:36.612Z,0.6107
2023-05-04T20:27:37.710Z,0.4286
2023-05-04T20:28:38.812Z,0.4385
2023-05-04T20:29:39.910Z,0.5562
2023-05-04T20:30:41.001Z,0.4681
2023-05-04T20:31:42.132Z,0.4622
2023-05-04T20:32:43.225Z,0.4745
2023-05-04T20:33:44.295Z,0.4490
2023-05-04T20:34:45.401Z,0.4145
2023-05-04T20:35:46.499Z,0.4271
2023-05-04T20:36:47.614Z,0.4474
2023-05-04T20:37:48.689Z,0.3568
2023-05-04T20:38:49.796Z,0.4365
2023-05-04T20:39:50.887Z,0.3654
2023-05-04T20:40:52.692Z,0.4650
2023-05-04T20:41:53.078Z,0.5060
2023-05-04T20:42:54.149Z,0.4837
2023-05-04T20:43:55.271Z,0.4862
2023-05-04T20:44:56.372Z,0.4294
2023-05-04T20:45:57.468Z,0.3634
2023-05-04T20:46:58.554Z,0.4644
2023-05-04T20:47:59.704Z,0.4191
2023-05-04T20:49:00.770Z,0.3997
2023-05-04T20:50:01.853Z,0.4588
2023-05-04T20:51:14.085Z,0.5545
2023-05-04T20:52:05.048Z,0.4694
2023-05-04T20:53:05.143Z,0.5126
2023-05-04T20:54:06.239Z,0.3948
2023-05-04T20:55:07.366Z,0.5128
2023-05-04T20:56:08.417Z,0.4707
2023-05-04T20:57:09.562Z,0.4647
2023-05-04T20:58:10.624Z,0.5354
2023-05-04T20:59:11.722Z,0.3651
2023-05-04T21:00:12.822Z,0.5123
2023-05-04T21:01:13.929Z,0.4651
2023-05-04T21:02:15.025Z,0.5093
2023-05-04T21:03:16.172Z,0.5920
2023-05-04T21:04:17.222Z,0.3943
2023-05-04T21:05:18.302Z,0.4288
2023-05-04T21:06:19.443Z,0.3034
2023-05-04T21:07:20.517Z,0.4366
2023-05-04T21:08:21.614Z,0.5157
2023-05-04T21:09:22.701Z,0.4576
2023-05-04T21:10:23.813Z,0.5568
2023-05-04T21:11:24.902Z,0.4593
2023-05-04T21:12:25.983Z,0.4954
2023-05-04T21:13:27.106Z,0.5193
2023-05-04T21:14:28.205Z,0.5595
2023-05-04T21:15:29.302Z,0.5176
2023-05-04T21:16:30.481Z,0.5253
2023-05-04T21:17:31.508Z,0.5282
2023-05-04T21:18:32.589Z,0.6132
2023-05-04T21:19:33.681Z,0.5286
2023-05-04T21:20:34.789Z,0.4444
2023-05-04T21:21:35.868Z,0.5572
2023-05-04T21:22:37.004Z,0.5381
2023-05-04T21:23:38.070Z,0.5675
2023-05-04T21:24:39.179Z,0.5119
2023-05-04T21:25:40.250Z,0.5388
2023-05-04T21:26:41.343Z,0.5953
2023-05-04T21:27:44.319Z,0.4589
2023-05-04T21:28:43.532Z,0.4446
2023-05-04T21:29:44.638Z,0.5374
2023-05-04T21:30:45.730Z,0.6301
2023-05-04T21:31:46.934Z,0.5662
2023-05-04T21:32:48.001Z,0.5493
2023-05-04T21:33:49.036Z,0.5987
2023-05-04T21:34:50.178Z,0.5786
2023-05-04T21:35:51.231Z,0.5492
2023-05-04T21:36:52.336Z,0.4535
2023-05-04T21:37:53.432Z,0.6260
2023-05-04T21:38:54.536Z,0.6068
2023-05-04T21:39:55.638Z,0.6082
2023-05-04T21:40:56.728Z,0.6112
2023-05-04T21:41:57.823Z,0.5106
2023-05-04T21:42:58.929Z,0.4613
2023-05-04T21:44:00.236Z,0.4742
2023-05-04T21:45:01.157Z,0.6611
2023-05-04T21:46:02.247Z,0.5791
2023-05-04T21:47:03.333Z,0.4606
2023-05-04T21:48:04.420Z,0.5180
2023-05-04T21:49:05.494Z,0.4673
2023-05-04T21:50:06.841Z,0.4874
2023-05-04T21:51:07.723Z,0.4575
2023-05-04T21:52:08.823Z,0.5197
2023-05-04T21:53:09.933Z,0.5078
2023-05-04T21:54:11.020Z,0.4579
2023-05-04T21:55:12.135Z,0.5912
2023-05-04T21:56:13.205Z,0.5202
2023-05-04T21:57:14.310Z,0.5887
2023-05-04T21:58:15.400Z,0.5188
2023-05-04T21:59:16.503Z,0.5273
2023-05-04T22:00:17.656Z,0.6522
2023-05-04T22:01:18.763Z,0.5089
2023-05-04T22:02:19.799Z,0.4249
2023-05-04T22:03:20.892Z,0.4813
2023-05-04T22:04:22.061Z,0.5742
2023-05-04T22:05:23.108Z,0.5025
2023-05-04T22:06:24.187Z,0.4081
2023-05-04T22:07:25.295Z,0.4217
2023-05-04T22:08:26.462Z,0.6089
2023-05-04T22:09:27.556Z,0.5355
2023-05-04T22:10:28.655Z,0.4798
2023-05-04T22:11:29.761Z,0.4933
2023-05-04T22:12:30.868Z,0.4317
2023-05-04T22:13:31.936Z,0.5324
2023-05-04T22:14:33.036Z,0.5392
2023-05-04T22:15:46.200Z,0.4719
2023-05-04T22:16:36.243Z,0.5924
2023-05-04T22:17:36.392Z,0.5477
2023-05-04T22:18:37.433Z,0.5384
2023-05-04T22:19:38.529Z,0.4947
2023-05-04T22:20:39.643Z,0.5152
2023-05-04T22:21:40.714Z,0.3467
2023-05-04T22:22:41.828Z,0.4027
2023-05-04T22:23:42.909Z,0.5860
2023-05-04T22:24:44.002Z,0.5227
2023-05-04T22:25:45.123Z,0.4800
2023-05-04T22:26:46.201Z,0.6143
2023-05-04T22:27:47.293Z,0.5799
2023-05-04T22:28:48.391Z,0.4210
2023-05-04T22:29:49.492Z,0.4916
2023-05-04T22:30:50.627Z,0.5794
2023-05-04T22:31:51.681Z,0.5296
2023-05-04T22:32:52.796Z,0.6272
2023-05-04T22:33:53.887Z,0.6113
2023-05-04T22:34:54.986Z,0.6280
2023-05-04T22:35:56.077Z,0.4690
2023-05-04T22:36:57.173Z,0.4578
2023-05-04T22:37:58.300Z,0.5084
2023-05-04T22:38:59.373Z,0.5280
2023-05-04T22:40:00.476Z,0.5174
2023-05-04T22:41:01.600Z,0.6554
2023-05-04T22:42:02.656Z,0.6163
2023-05-04T22:43:03.757Z,0.5967
2023-05-04T22:44:04.850Z,0.5346
2023-05-04T22:45:05.966Z,0.4251